Terminal Aerodrome Forecast
Issued by NWS Hastings, NE

Home | Current Version | Previous Version | Text Only | Print | Product List | Glossary On
Versions: 1 2 3 4 5 6 7 8 9 10 11 12 13 14 15 16 17 18 19 20 21 22
831
FTUS45 KGID 251122
TAFEAR
TAF
KEAR 251122Z 2512/2612 28006KT P6SM BKN200
     FM251500 23006KT P6SM BKN130
     FM251800 21010G17KT P6SM SCT140
     FM252300 24009KT P6SM SCT200
      AMD LTD TO CLD VIS AND WIND=

USA.gov is the U.S. government's official web portal to all federal, state and local government web resources and services.